Rinconada, Argentina
Current Conditions -  °F | °C
As of 10:00 PM on Sunday 21 Dec 2014 (Local Time) from SLTJ Reporting Station
Broken Clouds Broken Clouds  
Wind Chill: 66°   Ceiling: 3300
Heat Index: 66°   Visibility: 6mi
Dew Point: 59°   Wind: 14mph
Humidity: 78%   Direction: 170°S
Pressure: 29.97"   Gusts: NA
Location:  22.32°S, 66.28°W
Report Text: SLTJ 220100Z 17012KT 9999 BKN033 BKN200 19/15 Q1015
Loading
Personal Weather Stations






























Interactive Weather Map New forecast layout! Learn more

10-Day Weather Forecast

Advertisements
Track Severe Weather on mobile